Bajada del Agrio, Argentina
Current Conditions -  °F | °C
As of 7:00 AM on Tuesday 27 Jan 2015 (Local Time) from SAZN Reporting Station
Clear Clear  
Wind Chill: 64°   Ceiling: Unl
Heat Index: 64°   Visibility: 6mi
Dew Point: 46°   Wind: 10mph
Humidity: 52%   Direction: 270°W
Pressure: 29.8"   Gusts: NA
Location:  38.56°S, 70.02°W
Report Text: SAZN 271000Z 27009KT CAVOK 18/08 Q1009
Loading
Personal Weather Stations






























Interactive Weather Map New forecast layout! Learn more

10-Day Weather Forecast

Advertisements
Track Severe Weather on mobile